East Ridge, Tennessee
Current Conditions -  °F | °C
As of 5:53 AM on Friday 24 Oct 2014 (Local Time) from KCHA Reporting Station
Overcast Overcast  
Wind Chill: 50°   Ceiling: 18000
Heat Index: 50°   Visibility: 10mi
Dew Point: 47°   Wind: 0mph
Humidity: 89%   Direction: NA
Pressure: 30.1"   Gusts: NA
Location:  35°N, 85.24°W
Report Text: KCHA 240953Z 00000KT 10SM OVC180 10/08 A3010 RMK AO2 SLP191 FIRST T01000083
Loading
Personal Weather Stations






























Interactive Weather Map
Tropical Storm Tracking
New forecast layout! Learn more

10-Day Weather Forecast

Advertisements
Track Severe Weather on mobile